Decoded Metar for KEKX (ELIZABETH in KY, USA) (IATA:EKX) | Meteo·Mobile Aviation Weather
aviador You're here:

KEKX Decoded Metar

ELIZABETH in KY, USA
Report Time2019-01-17 00:15:00
UTC Time2019-01-17 00:25:28
Flight Rules vfr VFR
Wind150° at 03 kt
W.Decomp.*RWY 23: 0.7 kt HW 2.9 kt LCW
W.Rank150° ranks 24
Current wind is below 150° avg. (5.2)
Visibility9999 m
Phenomena:N/A
Clouds:Scattered 016 Hf
Overcast 031 Hf
Expected CloudBase > 800 ft AGL from Temp-Dew spread
Ceiling3,100 ft
Temp04°C (ISA -10)
Dew Point02°C (87% RH)
AAT1.3°C
QNH1024 hPa
Density Alt-669 ft
Elevation755 ft
Report Wrong Elevation
Raw Report
METAR KEKX 170015Z AUTO 15003KT 10SM SCT016 OVC031 04/02 A3025 RMK
AO2 T00370019=

Extra information for KEKX:More info

Airport Information Weather charts Add Link Nearby Venues Social comments

AIRNAV info for KEKX